createdAt,value
2022-10-11T03:49:59.777Z,99250.19
2022-10-11T03:52:27.538Z,99244.72
2022-10-11T03:54:55.257Z,99250.84
2022-10-11T03:57:23.029Z,99250.63
2022-10-11T03:59:50.829Z,99250.44
2022-10-11T04:02:18.685Z,99246.81
2022-10-11T04:04:46.363Z,99255.09
2022-10-11T04:07:15.501Z,99253.94
2022-10-11T04:09:43.230Z,99258.03
2022-10-11T04:12:10.920Z,99248.28
2022-10-11T04:14:38.592Z,99257.47
2022-10-11T04:17:06.308Z,99260.34
2022-10-11T04:19:33.985Z,99264.25
2022-10-11T04:22:01.669Z,99259.16
2022-10-11T04:24:31.128Z,99269.94
2022-10-11T04:26:58.955Z,99266.59
2022-10-11T04:29:32.203Z,99270.28
2022-10-11T04:32:00.465Z,99270.88
2022-10-11T04:34:28.271Z,99261.88
2022-10-11T04:36:55.987Z,99271.44
2022-10-11T04:39:23.873Z,99270.50
2022-10-11T04:41:52.943Z,99265.06
2022-10-11T04:44:20.651Z,99266.31
2022-10-11T04:46:48.366Z,99270.72
2022-10-11T04:49:16.084Z,99275.53
2022-10-11T04:51:43.851Z,99280.34
2022-10-11T04:54:11.525Z,99282.81
2022-10-11T04:56:39.326Z,99273.72
2022-10-11T04:59:08.550Z,99279.16
2022-10-11T05:01:36.363Z,99283.69
2022-10-11T05:04:04.425Z,99284.47
2022-10-11T05:06:32.161Z,99285.34
2022-10-11T05:09:00.578Z,99288.59
2022-10-11T05:11:28.403Z,99293.06
2022-10-11T05:13:56.882Z,99296.75
2022-10-11T05:16:25.989Z,99294.50
2022-10-11T05:18:53.709Z,99300.69
2022-10-11T05:21:24.297Z,99293.16
2022-10-11T05:23:55.716Z,99291.31
2022-10-11T05:26:24.645Z,99297.22
2022-10-11T05:28:53.161Z,99299.63
2022-10-11T05:31:21.507Z,99302.44
2022-10-11T05:33:50.661Z,99302.13
2022-10-11T05:36:18.780Z,99308.91
2022-10-11T05:38:46.500Z,99311.41
2022-10-11T05:41:16.882Z,99314.66
2022-10-11T05:43:47.031Z,99316.50
2022-10-11T05:46:15.016Z,99323.41
2022-10-11T05:48:42.784Z,99324.88
2022-10-11T05:51:12.551Z,99326.44
2022-10-11T05:53:40.364Z,99330.44
2022-10-11T05:56:19.199Z,99335.69
2022-10-11T05:58:46.961Z,99346.38
2022-10-11T06:01:19.809Z,99333.66
2022-10-11T06:03:47.630Z,99340.22
2022-10-11T06:06:17.512Z,99343.28
2022-10-11T06:08:45.765Z,99354.28
2022-10-11T06:11:15.458Z,99355.50
2022-10-11T06:13:43.628Z,99351.53
2022-10-11T06:16:14.155Z,99359.78
2022-10-11T06:18:41.873Z,99350.56
2022-10-11T06:21:09.723Z,99359.97
2022-10-11T06:23:38.803Z,99365.97
2022-10-11T06:26:09.666Z,99361.22
2022-10-11T06:28:37.890Z,99356.63
2022-10-11T06:31:06.991Z,99365.38
2022-10-11T06:33:35.359Z,99371.44
2022-10-11T06:36:09.226Z,99368.31
2022-10-11T06:38:43.833Z,99366.25
2022-10-11T06:41:14.550Z,99374.22
2022-10-11T06:43:45.001Z,99376.94
2022-10-11T06:46:13.103Z,99384.69
2022-10-11T06:48:41.771Z,99380.41
2022-10-11T06:51:09.585Z,99384.66
2022-10-11T06:53:38.624Z,99388.53
2022-10-11T06:56:11.342Z,99396.09
2022-10-11T06:58:39.705Z,99391.84
2022-10-11T07:01:09.351Z,99383.44
2022-10-11T07:03:39.596Z,99395.31
2022-10-11T07:06:10.598Z,99400.03
2022-10-11T07:08:40.165Z,99405.06
2022-10-11T07:11:09.987Z,99406.16
2022-10-11T07:13:38.349Z,99407.28
2022-10-11T07:16:08.467Z,99409.44
2022-10-11T07:18:37.184Z,99418.19
2022-10-11T07:22:24.110Z,99417.44
2022-10-11T07:24:51.765Z,99417.38
2022-10-11T07:27:19.507Z,99431.69
2022-10-11T07:29:47.281Z,99427.84
2022-10-11T07:32:16.332Z,99425.53
2022-10-11T07:34:44.065Z,99427.41
2022-10-11T07:37:11.780Z,99428.97
2022-10-11T07:39:40.933Z,99424.78
2022-10-11T07:42:09.861Z,99434.13
2022-10-11T07:44:37.551Z,99426.41
2022-10-11T07:47:10.283Z,99432.59
2022-10-11T07:49:38.900Z,99428.38
2022-10-11T07:52:06.953Z,99431.13
2022-10-11T07:54:34.641Z,99435.84
2022-10-11T07:57:03.672Z,99433.97
2022-10-11T07:59:31.485Z,99442.94
2022-10-11T08:01:59.308Z,99437.75
2022-10-11T08:04:29.297Z,99437.78
2022-10-11T08:06:56.962Z,99443.56
2022-10-11T08:09:24.670Z,99438.66
2022-10-11T08:11:52.387Z,99439.50
2022-10-11T08:14:21.883Z,99445.34
2022-10-11T08:16:49.984Z,99453.47
2022-10-11T08:19:18.586Z,99441.72
2022-10-11T08:21:46.403Z,99446.84
2022-10-11T08:24:14.865Z,99447.13
2022-10-11T08:26:42.877Z,99444.66
2022-10-11T08:29:11.552Z,99452.47
2022-10-11T08:31:41.076Z,99455.84
2022-10-11T08:34:08.883Z,99454.28
2022-10-11T08:36:37.438Z,99453.56
2022-10-11T08:39:06.227Z,99453.09
2022-10-11T08:41:40.637Z,99450.34
2022-10-11T08:44:51.783Z,99456.16
2022-10-11T08:47:27.121Z,99459.91
2022-10-11T08:49:56.010Z,99454.13
2022-10-11T08:52:28.138Z,99457.09
2022-10-11T08:55:02.454Z,99452.50
2022-10-11T08:57:34.450Z,99453.66
2022-10-11T09:00:05.986Z,99459.94
2022-10-11T09:03:06.346Z,99449.53
2022-10-11T09:05:35.179Z,99458.06
2022-10-11T09:08:09.403Z,99456.72
2022-10-11T09:10:54.624Z,99452.88
2022-10-11T09:13:42.025Z,99454.47
2022-10-11T09:16:19.454Z,99456.72
2022-10-11T09:19:06.219Z,99454.47
2022-10-11T09:21:43.167Z,99446.91
2022-10-11T09:24:38.410Z,99451.25
2022-10-11T09:27:18.245Z,99456.09
2022-10-11T09:29:56.266Z,99453.84
2022-10-11T09:32:29.826Z,99455.50
2022-10-11T09:35:09.486Z,99458.16
2022-10-11T09:37:44.993Z,99453.38
2022-10-11T09:40:33.347Z,99459.03
2022-10-11T09:43:01.040Z,99465.72
2022-10-11T09:45:28.787Z,99452.28
2022-10-11T09:48:00.642Z,99461.50
2022-10-11T09:50:32.607Z,99463.19
2022-10-11T09:53:03.238Z,99466.31
2022-10-11T09:55:35.649Z,99467.59
2022-10-11T09:58:04.667Z,99462.44
2022-10-11T10:00:34.289Z,99463.72
2022-10-11T10:03:04.762Z,99473.38
2022-10-11T10:05:36.881Z,99464.38
2022-10-11T10:08:22.381Z,99466.03
2022-10-11T10:11:01.893Z,99462.09
2022-10-11T10:13:38.610Z,99461.19
2022-10-11T10:16:11.687Z,99461.75
2022-10-11T10:18:44.958Z,99462.91
2022-10-11T10:21:16.165Z,99465.13
2022-10-11T10:23:44.327Z,99466.81
2022-10-11T10:26:14.848Z,99462.16
2022-10-11T10:28:57.729Z,99460.41
2022-10-11T10:31:49.549Z,99457.88
2022-10-11T10:34:28.036Z,99464.97
2022-10-11T10:37:02.714Z,99458.84
2022-10-11T10:39:37.462Z,99463.59
2022-10-11T10:42:12.268Z,99468.31
2022-10-11T10:44:40.066Z,99471.50
2022-10-11T10:47:15.479Z,99467.44
2022-10-11T10:49:54.165Z,99460.28
2022-10-11T10:52:58.776Z,99463.31
2022-10-11T10:55:30.412Z,99462.97
2022-10-11T10:58:06.358Z,99467.63
2022-10-11T11:00:43.187Z,99459.75
2022-10-11T11:03:15.851Z,99469.94
2022-10-11T11:05:49.317Z,99465.84
2022-10-11T11:08:31.110Z,99461.06
2022-10-11T11:11:07.084Z,99456.13
2022-10-11T11:13:46.604Z,99450.63
2022-10-11T11:16:23.945Z,99451.81
2022-10-11T11:18:59.055Z,99438.94
2022-10-11T11:21:41.381Z,99448.75
2022-10-11T11:24:19.455Z,99452.06
2022-10-11T11:26:53.545Z,99440.00
2022-10-11T11:29:37.899Z,99440.50
2022-10-11T11:32:17.699Z,99438.78
2022-10-11T11:34:49.428Z,99434.38
2022-10-11T11:37:24.830Z,99434.03
2022-10-11T11:39:58.100Z,99433.50
2022-10-11T11:42:31.971Z,99433.63
2022-10-11T11:45:05.750Z,99436.88
2022-10-11T11:47:38.020Z,99434.47
2022-10-11T11:50:22.833Z,99426.94
2022-10-11T11:52:55.641Z,99437.13
2022-10-11T11:55:33.405Z,99438.41
2022-10-11T11:58:13.355Z,99436.09
2022-10-11T12:00:52.933Z,99431.63
2022-10-11T12:03:26.378Z,99433.25
2022-10-11T12:06:20.568Z,99430.00
2022-10-11T12:08:50.361Z,99429.41
2022-10-11T12:11:25.263Z,99444.63
2022-10-11T12:13:56.537Z,99436.00
2022-10-11T12:16:27.286Z,99430.78
2022-10-11T12:19:01.480Z,99429.28
2022-10-11T12:21:33.069Z,99430.59
2022-10-11T12:24:10.406Z,99427.03
2022-10-11T12:26:42.833Z,99425.50
2022-10-11T12:29:45.403Z,99425.00
2022-10-11T12:32:49.810Z,99424.59
2022-10-11T12:36:08.426Z,99429.53
2022-10-11T12:38:39.958Z,99421.84
2022-10-11T12:41:50.759Z,99422.63
2022-10-11T12:44:23.934Z,99424.63
2022-10-11T12:47:21.754Z,99422.78
2022-10-11T12:50:04.832Z,99423.25
2022-10-11T12:52:42.035Z,99425.41
2022-10-11T12:55:36.022Z,99411.59
2022-10-11T12:58:28.739Z,99415.13
2022-10-11T13:01:17.698Z,99407.97
2022-10-11T13:03:49.076Z,99403.66
2022-10-11T13:06:20.516Z,99416.03
2022-10-11T13:08:54.464Z,99412.50
2022-10-11T13:11:30.412Z,99400.97
2022-10-11T13:14:01.758Z,99404.47
2022-10-11T13:16:42.948Z,99399.88
2022-10-11T13:19:14.837Z,99401.50
2022-10-11T13:21:43.602Z,99401.78
2022-10-11T13:24:16.734Z,99395.38
2022-10-11T13:26:46.489Z,99399.69
2022-10-11T13:29:17.992Z,99394.19
2022-10-11T13:31:47.847Z,99395.72
2022-10-11T13:34:21.000Z,99398.97
2022-10-11T13:36:56.314Z,99404.09
2022-10-11T13:39:31.273Z,99403.78
2022-10-11T13:42:00.457Z,99397.97
2022-10-11T13:44:32.959Z,99401.03
2022-10-11T13:47:01.134Z,99400.69
2022-10-11T13:49:37.364Z,99399.94
2022-10-11T13:52:08.041Z,99389.44
2022-10-11T13:54:55.367Z,99391.63
2022-10-11T13:57:28.468Z,99391.25
2022-10-11T13:59:57.643Z,99395.84
2022-10-11T14:02:28.127Z,99389.13
2022-10-11T14:04:55.855Z,99390.38
2022-10-11T14:07:27.664Z,99385.91
2022-10-11T14:09:56.294Z,99387.59
2022-10-11T14:12:32.901Z,99384.69
2022-10-11T14:15:02.238Z,99390.81
2022-10-11T14:17:40.692Z,99393.50
2022-10-11T14:20:16.878Z,99391.94
2022-10-11T14:22:44.799Z,99394.28
2022-10-11T14:25:12.822Z,99385.75
2022-10-11T14:27:42.466Z,99388.19
2022-10-11T14:30:27.385Z,99389.41
2022-10-11T14:33:00.242Z,99395.19
2022-10-11T14:35:35.476Z,99395.50
2022-10-11T14:38:03.276Z,99394.34
2022-10-11T14:40:32.484Z,99394.44
2022-10-11T14:43:02.504Z,99393.34
2022-10-11T14:45:31.581Z,99394.47
2022-10-11T14:47:59.240Z,99394.78
2022-10-11T14:50:36.482Z,99389.41
2022-10-11T14:53:04.707Z,99386.34
2022-10-11T14:55:33.040Z,99387.66
2022-10-11T14:58:00.746Z,99388.00
2022-10-11T15:00:30.463Z,99392.78
2022-10-11T15:02:59.866Z,99378.72
2022-10-11T15:05:33.716Z,99387.78
2022-10-11T15:08:02.308Z,99388.03
2022-10-11T15:10:31.933Z,99383.25
2022-10-11T15:13:00.343Z,99375.31
2022-10-11T15:15:30.663Z,99378.31
2022-10-11T15:18:01.893Z,99366.03
2022-10-11T15:20:32.545Z,99379.88
2022-10-11T15:23:01.139Z,99382.41
2022-10-11T15:25:29.873Z,99381.25
2022-10-11T15:27:58.501Z,99378.47
2022-10-11T15:30:27.740Z,99382.56
2022-10-11T15:32:55.795Z,99380.41
2022-10-11T15:35:26.384Z,99379.16
2022-10-11T15:37:56.244Z,99376.50
2022-10-11T15:40:26.482Z,99372.00
2022-10-11T15:42:55.359Z,99377.06
2022-10-11T15:45:24.053Z,99370.28
2022-10-11T15:47:52.272Z,99377.34
2022-10-11T15:50:34.042Z,99379.00
2022-10-11T15:53:04.771Z,99379.00
2022-10-11T15:55:34.262Z,99372.72
2022-10-11T15:58:02.650Z,99380.13
2022-10-11T16:00:31.428Z,99381.00
2022-10-11T16:03:00.254Z,99382.03
2022-10-11T16:05:28.724Z,99382.06
2022-10-11T16:07:56.875Z,99382.69
2022-10-11T16:10:26.050Z,99376.63
2022-10-11T16:12:53.959Z,99369.06
2022-10-11T16:15:23.961Z,99378.44
2022-10-11T16:17:51.800Z,99374.66
2022-10-11T16:20:22.165Z,99365.81
2022-10-11T16:22:50.771Z,99373.72
2022-10-11T16:25:19.144Z,99378.47
2022-10-11T16:27:51.077Z,99379.38
2022-10-11T16:30:19.987Z,99373.22
2022-10-11T16:32:48.314Z,99376.91
2022-10-11T16:35:17.492Z,99382.66
2022-10-11T16:37:45.971Z,99375.97
2022-10-11T16:40:17.352Z,99381.81
2022-10-11T16:42:46.307Z,99380.19
2022-10-11T16:45:16.971Z,99377.34
2022-10-11T16:47:45.078Z,99375.09
2022-10-11T16:50:13.840Z,99380.31
2022-10-11T16:52:41.536Z,99381.69
2022-10-11T16:55:10.071Z,99386.59
2022-10-11T16:57:38.009Z,99382.09
2022-10-11T17:00:07.751Z,99389.00
2022-10-11T17:02:37.256Z,99381.56
2022-10-11T17:05:05.603Z,99391.56
2022-10-11T17:07:35.730Z,99387.44
2022-10-11T17:10:03.500Z,99383.25
2022-10-11T17:12:31.952Z,99390.13
2022-10-11T17:14:59.724Z,99387.03
2022-10-11T17:17:27.974Z,99388.22
2022-10-11T17:19:57.430Z,99389.84
2022-10-11T17:22:27.440Z,99389.13
2022-10-11T17:24:55.229Z,99390.13
2022-10-11T17:27:22.929Z,99377.47
2022-10-11T17:29:50.621Z,99379.97
2022-10-11T17:32:18.360Z,99372.00
2022-10-11T17:34:46.050Z,99379.16
2022-10-11T17:37:15.252Z,99373.53
2022-10-11T17:39:43.018Z,99367.34
2022-10-11T17:42:10.912Z,99370.88
2022-10-11T17:44:38.751Z,99372.84
2022-10-11T17:47:06.611Z,99371.13
2022-10-11T17:49:34.290Z,99372.69
2022-10-11T17:52:02.130Z,99384.09
2022-10-11T17:54:31.476Z,99380.56
2022-10-11T17:56:59.227Z,99390.84
2022-10-11T17:59:28.639Z,99392.25
2022-10-11T18:01:56.395Z,99398.41
2022-10-11T18:04:26.825Z,99401.53
2022-10-11T18:06:54.950Z,99398.97
2022-10-11T18:09:23.801Z,99404.38
2022-10-11T18:11:52.912Z,99405.69
2022-10-11T18:14:21.128Z,99405.72
2022-10-11T18:16:48.915Z,99399.22
2022-10-11T18:19:16.686Z,99405.38
2022-10-11T18:21:44.429Z,99396.66
2022-10-11T18:24:15.438Z,99403.31
2022-10-11T18:26:43.766Z,99399.22
2022-10-11T18:29:13.802Z,99394.69
2022-10-11T18:31:42.297Z,99389.34
2022-10-11T18:34:13.810Z,99386.13
2022-10-11T18:36:41.666Z,99385.88
2022-10-11T18:39:13.316Z,99389.47
2022-10-11T18:41:44.807Z,99389.84
2022-10-11T18:44:16.126Z,99395.19
2022-10-11T18:46:44.659Z,99395.47
2022-10-11T18:49:12.689Z,99388.94
2022-10-11T18:51:42.177Z,99390.47
2022-10-11T18:54:15.273Z,99387.53
2022-10-11T18:56:46.634Z,99389.94
2022-10-11T18:59:15.866Z,99396.41
2022-10-11T19:01:45.503Z,99396.81
2022-10-11T19:04:15.727Z,99403.53
2022-10-11T19:06:47.356Z,99400.75
2022-10-11T19:09:21.354Z,99395.69
2022-10-11T19:11:49.893Z,99386.25
2022-10-11T19:14:20.514Z,99391.72
2022-10-11T19:16:51.403Z,99383.91
2022-10-11T19:19:20.489Z,99389.31
2022-10-11T19:21:48.720Z,99383.00
2022-10-11T19:24:17.218Z,99388.88
2022-10-11T19:26:45.203Z,99387.88
2022-10-11T19:29:15.305Z,99382.84
2022-10-11T19:31:49.456Z,99382.03
2022-10-11T19:34:17.914Z,99385.28
2022-10-11T19:36:46.012Z,99387.00
2022-10-11T19:39:17.360Z,99386.13
2022-10-11T19:41:46.054Z,99379.53
2022-10-11T19:44:15.327Z,99379.53
2022-10-11T19:46:53.613Z,99386.56
2022-10-11T19:49:23.854Z,99391.94
2022-10-11T19:51:52.051Z,99393.25
2022-10-11T19:54:19.916Z,99384.13
2022-10-11T19:56:48.155Z,99386.66
2022-10-11T19:59:16.580Z,99389.25
2022-10-11T20:01:51.905Z,99382.28
2022-10-11T20:07:09.151Z,99381.63
2022-10-11T20:09:36.979Z,99389.22
2022-10-11T20:12:04.992Z,99397.81
2022-10-11T20:14:32.796Z,99393.16
2022-10-11T20:17:01.849Z,99391.81
2022-10-11T20:19:31.956Z,99395.41
2022-10-11T20:22:00.481Z,99397.56
2022-10-11T20:24:32.244Z,99401.28
2022-10-11T20:27:00.415Z,99397.72
2022-10-11T20:29:28.624Z,99408.69
2022-10-11T20:31:58.763Z,99405.59
2022-10-11T20:34:28.626Z,99398.84
2022-10-11T20:36:56.384Z,99406.22
2022-10-11T20:39:24.647Z,99399.72
2022-10-11T20:41:52.405Z,99402.19
2022-10-11T20:44:20.141Z,99394.97
2022-10-11T20:46:47.920Z,99399.88
2022-10-11T20:49:15.639Z,99402.19
2022-10-11T20:51:44.730Z,99397.06
2022-10-11T20:54:14.579Z,99396.81
2022-10-11T20:56:42.300Z,99395.47
2022-10-11T20:59:12.465Z,99403.75
2022-10-11T21:01:41.622Z,99399.84
2022-10-11T21:04:17.530Z,99395.34
2022-10-11T21:06:46.932Z,99402.28
2022-10-11T21:09:16.582Z,99405.63
2022-10-11T21:11:45.023Z,99403.22
2022-10-11T21:14:12.725Z,99403.50
2022-10-11T21:16:43.358Z,99403.88
2022-10-11T21:19:14.929Z,99404.91
2022-10-11T21:21:43.219Z,99398.69
2022-10-11T21:24:12.303Z,99402.13
2022-10-11T21:26:40.270Z,99399.06
2022-10-11T21:29:08.446Z,99394.34
2022-10-11T21:31:36.298Z,99398.28
2022-10-11T21:34:05.104Z,99401.13
2022-10-11T21:36:32.909Z,99394.53
2022-10-11T21:39:00.617Z,99384.56
2022-10-11T21:41:30.777Z,99384.00
2022-10-11T21:43:59.035Z,99383.75
2022-10-11T21:49:17.176Z,99392.84
2022-10-11T21:51:45.237Z,99389.31
2022-10-11T21:54:13.039Z,99385.38
2022-10-11T21:56:42.506Z,99384.25
2022-10-11T21:59:12.328Z,99387.75
2022-10-11T22:01:41.610Z,99384.91
2022-10-11T22:04:09.970Z,99378.91
2022-10-11T22:06:38.594Z,99379.44
2022-10-11T22:09:07.860Z,99388.00
2022-10-11T22:11:35.747Z,99378.47
2022-10-11T22:14:04.854Z,99374.03
2022-10-11T22:16:34.162Z,99375.34
2022-10-11T22:19:02.084Z,99367.50
2022-10-11T22:21:29.915Z,99370.75
2022-10-11T22:23:57.837Z,99366.09
2022-10-11T22:26:27.356Z,99370.09
2022-10-11T22:28:55.152Z,99373.94
2022-10-11T22:31:24.653Z,99376.88
2022-10-11T22:33:54.939Z,99374.53
2022-10-11T22:36:24.162Z,99362.72
2022-10-11T22:38:52.544Z,99373.03
2022-10-11T22:41:20.511Z,99373.84
2022-10-11T22:43:48.169Z,99367.59
2022-10-11T22:46:15.899Z,99367.84
2022-10-11T22:48:44.903Z,99363.94
2022-10-11T22:51:12.621Z,99360.19
2022-10-11T22:53:40.306Z,99364.69
2022-10-11T22:56:09.226Z,99363.38
2022-10-11T22:58:36.923Z,99364.66
2022-10-11T23:01:08.832Z,99367.44
2022-10-11T23:03:36.744Z,99357.97
2022-10-11T23:06:06.159Z,99356.50
2022-10-11T23:08:33.930Z,99350.88
2022-10-11T23:11:05.233Z,99353.25
2022-10-11T23:13:33.040Z,99349.28
2022-10-11T23:16:00.870Z,99351.03
2022-10-11T23:18:28.643Z,99343.31
2022-10-11T23:20:56.527Z,99353.50
2022-10-11T23:23:25.596Z,99354.84
2022-10-11T23:26:01.491Z,99360.69
2022-10-11T23:28:29.326Z,99356.59
2022-10-11T23:30:57.140Z,99357.47
2022-10-11T23:33:24.914Z,99352.13
2022-10-11T23:35:54.722Z,99356.94
2022-10-11T23:38:22.543Z,99345.91
2022-10-11T23:40:51.566Z,99346.81
2022-10-11T23:43:19.505Z,99348.84
2022-10-11T23:45:47.293Z,99341.78
2022-10-11T23:48:14.997Z,99346.84
2022-10-11T23:50:43.304Z,99345.66
2022-10-11T23:53:13.469Z,99342.22
2022-10-11T23:55:41.499Z,99353.63
2022-10-11T23:58:10.681Z,99345.84
